Time;durP1;ratioP1;P1;durP2;ratioP2;P2;SDS_P1;SDS_P2;PMS_P1;PMS_P2;Temp;Humidity;BMP_temperature;BMP_pressure;BME280_temperature;BME280_humidity;BME280_pressure;Samples;Min_cycle;Max_cycle;Signal;HPM_P1;HPM_P2
2022/06/20 00:00:03;;;;;;;8.18;4.50;;;;;;;14.80;95.68;100447.19;696142;28;1309;-78
2022/06/20 00:00:26;;;;;;;8.85;4.78;;;;;;;14.79;94.84;100453.34;697653;28;854;-78
2022/06/20 00:00:47;;;;;;;9.05;4.68;;;;;;;14.73;95.30;100455.25;695461;28;851;-78
2022/06/20 00:01:08;;;;;;;7.43;4.65;;;;;;;14.67;95.76;100451.03;692270;28;1360;-78
2022/06/20 00:01:28;;;;;;;9.43;4.80;;;;;;;14.71;95.48;100443.94;696392;28;1325;-78
2022/06/20 00:01:48;;;;;;;9.67;4.90;;;;;;;14.77;95.88;100438.50;695363;28;1369;-77
2022/06/20 00:02:17;;;;;;;7.83;4.63;;;;;;;14.76;95.89;100431.50;689012;28;4326;-78
2022/06/20 00:02:44;;;;;;;9.52;5.15;;;;;;;14.70;95.95;100440.41;690130;28;1001;-78
2022/06/20 00:03:05;;;;;;;8.45;5.00;;;;;;;14.71;95.74;100446.56;686259;28;856;-77
2022/06/20 00:03:29;;;;;;;8.68;5.07;;;;;;;14.73;96.09;100445.63;689187;28;1447;-77
2022/06/20 00:03:51;;;;;;;7.57;4.72;;;;;;;14.78;95.72;100437.59;693892;28;1322;-77
2022/06/20 00:04:19;;;;;;;9.45;4.80;;;;;;;14.69;95.42;100443.09;697374;28;1273;-78
2022/06/20 00:04:39;;;;;;;8.35;5.28;;;;;;;14.60;95.81;100452.91;696732;28;1005;-77
2022/06/20 00:05:02;;;;;;;7.87;5.20;;;;;;;14.57;96.43;100455.63;696888;28;4305;-79
2022/06/20 00:05:28;;;;;;;8.95;5.60;;;;;;;14.55;96.26;100446.91;694420;28;1400;-78
2022/06/20 00:05:48;;;;;;;9.50;5.40;;;;;;;14.61;96.21;100451.16;694517;28;1072;-78
2022/06/20 00:06:13;;;;;;;8.90;5.10;;;;;;;14.69;96.21;100450.97;694912;28;1338;-79
2022/06/20 00:06:34;;;;;;;10.25;5.32;;;;;;;14.69;95.74;100456.25;696330;28;1878;-78
2022/06/20 00:06:54;;;;;;;7.82;5.00;;;;;;;14.70;95.88;100460.63;697153;28;1718;-78
2022/06/20 00:07:15;;;;;;;8.40;5.30;;;;;;;14.75;95.49;100456.09;699526;28;1091;-77
2022/06/20 00:07:35;;;;;;;8.52;5.03;;;;;;;14.74;95.50;100467.53;694455;28;1120;-77
2022/06/20 00:07:56;;;;;;;8.20;5.40;;;;;;;14.72;95.47;100469.34;698308;28;4273;-78
2022/06/20 00:08:16;;;;;;;9.57;5.47;;;;;;;14.71;95.42;100467.59;694199;28;1262;-77
2022/06/20 00:08:37;;;;;;;8.63;5.30;;;;;;;14.70;95.31;100471.13;694455;28;1285;-78
2022/06/20 00:08:57;;;;;;;8.03;5.30;;;;;;;14.69;94.72;100469.41;694499;28;1799;-77
2022/06/20 00:09:18;;;;;;;7.55;5.22;;;;;;;14.68;95.25;100480.84;694340;28;1028;-78
2022/06/20 00:09:38;;;;;;;6.70;5.00;;;;;;;14.72;95.55;100469.34;692243;28;776;-77
2022/06/20 00:09:59;;;;;;;8.07;5.10;;;;;;;14.86;95.64;100477.75;696863;28;1972;-78
2022/06/20 00:10:22;;;;;;;8.83;5.33;;;;;;;14.85;94.87;100470.75;696528;28;1207;-78
2022/06/20 00:10:44;;;;;;;9.63;5.57;;;;;;;14.80;94.76;100477.88;696925;28;916;-78
2022/06/20 00:11:05;;;;;;;8.68;5.50;;;;;;;14.76;94.98;100469.22;697367;28;4244;-78
2022/06/20 00:11:38;;;;;;;8.60;5.53;;;;;;;14.72;95.15;100480.72;698497;28;1357;-78
2022/06/20 00:11:58;;;;;;;8.52;5.50;;;;;;;14.71;95.16;100486.88;696908;28;1836;-78
2022/06/20 00:12:22;;;;;;;8.90;5.73;;;;;;;14.74;95.00;100488.56;696596;28;1414;-78
2022/06/20 00:12:43;;;;;;;8.30;5.40;;;;;;;14.74;94.85;100485.94;697223;28;1336;-78
2022/06/20 00:13:04;;;;;;;8.55;5.60;;;;;;;14.72;95.69;100490.41;693469;28;1024;-78
2022/06/20 00:13:31;;;;;;;9.20;5.60;;;;;;;14.80;95.77;100489.28;689363;28;1231;-78
2022/06/20 00:13:54;;;;;;;8.77;5.20;;;;;;;14.80;95.39;100491.03;691972;28;868;-78
2022/06/20 00:14:18;;;;;;;7.75;5.60;;;;;;;14.76;95.75;100494.66;690373;28;4598;-78
2022/06/20 00:14:38;;;;;;;9.95;6.25;;;;;;;14.70;95.56;100492.19;691959;28;1003;-77
2022/06/20 00:15:03;;;;;;;8.77;6.13;;;;;;;14.74;95.32;100491.22;695292;28;1170;-78
2022/06/20 00:15:25;;;;;;;11.13;6.03;;;;;;;14.75;95.49;100495.56;699108;28;910;-78
2022/06/20 00:15:48;;;;;;;10.30;5.90;;;;;;;14.75;95.23;100485.91;696993;28;1060;-78
2022/06/20 00:16:14;;;;;;;9.60;6.00;;;;;;;14.72;95.62;100493.03;694895;28;1275;-77
2022/06/20 00:16:34;;;;;;;9.02;6.05;;;;;;;14.73;95.30;100485.09;693875;28;1410;-77
2022/06/20 00:16:55;;;;;;;9.10;5.77;;;;;;;14.68;95.92;100486.97;694165;28;4333;-77
2022/06/20 00:17:15;;;;;;;8.50;5.63;;;;;;;14.67;95.58;100494.91;696931;28;1337;-77
2022/06/20 00:17:35;;;;;;;9.73;6.23;;;;;;;14.67;95.45;100494.91;698661;28;1327;-77
2022/06/20 00:17:57;;;;;;;10.10;6.65;;;;;;;14.72;95.16;100487.78;693985;28;1183;-78
2022/06/20 00:18:18;;;;;;;9.90;7.05;;;;;;;14.75;95.05;100487.69;693879;28;1907;-78
2022/06/20 00:18:39;;;;;;;8.60;6.70;;;;;;;14.74;94.24;100485.94;696143;28;1243;-78
2022/06/20 00:19:00;;;;;;;9.13;6.28;;;;;;;14.68;95.39;100499.25;694416;28;1212;-77
2022/06/20 00:19:21;;;;;;;9.32;6.97;;;;;;;14.72;95.50;100487.78;697925;28;1360;-78
2022/06/20 00:19:42;;;;;;;9.27;6.77;;;;;;;14.72;95.42;100482.50;697698;28;896;-78
2022/06/20 00:20:03;;;;;;;9.48;6.65;;;;;;;14.66;95.63;100487.91;698796;28;4332;-78
2022/06/20 00:20:24;;;;;;;9.48;6.32;;;;;;;14.70;95.02;100481.66;700535;28;1069;-77
2022/06/20 00:20:45;;;;;;;9.55;6.50;;;;;;;14.74;95.47;100473.63;697195;28;1353;-78
2022/06/20 00:21:06;;;;;;;9.27;6.30;;;;;;;14.76;95.12;100478.88;694451;28;1283;-77
2022/06/20 00:21:30;;;;;;;10.13;6.67;;;;;;;14.86;95.10;100482.16;695059;28;947;-78
2022/06/20 00:21:50;;;;;;;8.80;6.65;;;;;;;14.90;95.12;100487.28;693529;28;1075;-78
2022/06/20 00:22:10;;;;;;;8.53;6.67;;;;;;;14.93;94.92;100479.31;690220;28;1344;-78
2022/06/20 00:22:31;;;;;;;9.63;7.55;;;;;;;14.96;95.02;100467.84;695588;28;1304;-77
2022/06/20 00:22:51;;;;;;;9.93;7.30;;;;;;;15.00;94.59;100468.63;697469;28;1514;-78
2022/06/20 00:23:12;;;;;;;10.03;7.37;;;;;;;14.93;94.49;100468.78;697379;28;4260;-78
2022/06/20 00:23:32;;;;;;;8.93;6.78;;;;;;;14.89;94.08;100475.03;697274;28;1103;-77
2022/06/20 00:23:53;;;;;;;8.83;6.67;;;;;;;14.85;94.14;100473.38;697874;28;1393;-78
2022/06/20 00:24:16;;;;;;;9.95;6.82;;;;;;;14.81;94.85;100477.00;694290;28;1373;-78
2022/06/20 00:24:36;;;;;;;9.82;6.53;;;;;;;14.77;94.93;100467.44;691967;28;819;-78
2022/06/20 00:24:57;;;;;;;11.23;6.95;;;;;;;14.81;95.20;100469.09;692072;28;1250;-78
2022/06/20 00:25:17;;;;;;;11.33;6.77;;;;;;;14.78;94.70;100463.91;694203;28;1205;-78
2022/06/20 00:25:38;;;;;;;10.40;6.60;;;;;;;14.73;95.13;100466.69;694691;28;1302;-78
2022/06/20 00:26:00;;;;;;;9.45;7.20;;;;;;;14.74;95.39;100464.91;691544;28;4346;-78
2022/06/20 00:26:20;;;;;;;9.77;6.40;;;;;;;14.76;94.81;100456.06;693742;28;1360;-78
2022/06/20 00:26:41;;;;;;;10.33;6.17;;;;;;;14.74;95.12;100452.59;692076;28;1093;-78
2022/06/20 00:27:06;;;;;;;10.53;6.77;;;;;;;14.74;95.53;100451.75;694531;28;1265;-78
2022/06/20 00:27:26;;;;;;;9.10;6.40;;;;;;;14.72;95.43;100456.19;698630;28;884;-78
2022/06/20 00:27:47;;;;;;;8.37;6.10;;;;;;;14.71;96.19;100446.56;693562;28;1442;-78
2022/06/20 00:28:10;;;;;;;9.50;6.32;;;;;;;14.63;95.97;100445.00;694020;28;1254;-77
2022/06/20 00:28:31;;;;;;;10.85;7.00;;;;;;;14.66;96.05;100448.44;694731;28;879;-78
2022/06/20 00:28:51;;;;;;;11.25;7.93;;;;;;;14.61;96.29;100438.84;692219;28;1330;-78
2022/06/20 00:29:12;;;;;;;11.17;7.60;;;;;;;14.60;96.11;100439.75;691777;28;4297;-78
2022/06/20 00:29:34;;;;;;;10.60;7.72;;;;;;;14.57;96.57;100437.22;693727;28;1387;-77
2022/06/20 00:29:54;;;;;;;11.35;8.48;;;;;;;14.53;96.40;100435.56;693651;28;920;-78
2022/06/20 00:30:18;;;;;;;11.43;8.03;;;;;;;14.55;96.91;100436.41;696820;28;1333;-78
2022/06/20 00:30:42;;;;;;;12.55;8.40;;;;;;;14.59;96.63;100427.53;695585;28;903;-78
2022/06/20 00:31:03;;;;;;;12.77;8.40;;;;;;;14.62;96.66;100416.94;691743;28;1561;-78
2022/06/20 00:31:24;;;;;;;11.98;8.52;;;;;;;14.69;96.34;100411.53;690395;28;1030;-78
2022/06/20 00:31:44;;;;;;;10.68;8.45;;;;;;;14.74;96.30;100415.75;692726;28;1312;-78
2022/06/20 00:32:06;;;;;;;11.03;8.47;;;;;;;14.74;96.13;100410.50;693542;28;4250;-78
2022/06/20 00:32:27;;;;;;;12.50;8.93;;;;;;;14.82;95.85;100402.41;694320;28;1196;-77
2022/06/20 00:32:48;;;;;;;11.63;8.70;;;;;;;14.79;95.46;100397.22;695315;28;1747;-78
2022/06/20 00:33:08;;;;;;;12.32;9.23;;;;;;;14.85;95.39;100391.78;697579;28;974;-78
2022/06/20 00:33:29;;;;;;;12.37;9.17;;;;;;;14.81;94.91;100400.69;693847;28;1148;-78
2022/06/20 00:33:49;;;;;;;11.35;9.15;;;;;;;14.71;95.34;100383.41;689448;28;4478;-77
2022/06/20 00:34:10;;;;;;;12.80;9.82;;;;;;;14.67;96.14;100387.03;689685;28;1160;-78
2022/06/20 00:34:31;;;;;;;12.95;9.60;;;;;;;14.68;96.03;100380.88;691706;28;1612;-77
2022/06/20 00:34:51;;;;;;;11.90;9.37;;;;;;;14.66;95.96;100387.94;691413;28;1238;-78
2022/06/20 00:35:13;;;;;;;12.87;9.47;;;;;;;14.60;96.66;100373.13;691172;28;4316;-78
2022/06/20 00:35:35;;;;;;;13.55;9.60;;;;;;;14.64;96.34;100373.03;694604;28;1569;-77
2022/06/20 00:35:57;;;;;;;13.48;9.52;;;;;;;14.60;96.71;100370.50;689576;28;1275;-77
2022/06/20 00:36:18;;;;;;;12.50;9.50;;;;;;;14.59;96.78;100372.28;691490;28;1001;-78
2022/06/20 00:36:38;;;;;;;13.10;10.47;;;;;;;14.51;97.05;100370.75;696976;28;1294;-78
2022/06/20 00:36:59;;;;;;;15.17;10.73;;;;;;;14.55;97.09;100375.91;695475;28;950;-78
2022/06/20 00:37:20;;;;;;;14.73;11.32;;;;;;;14.53;96.30;100377.69;694968;28;1188;-77
2022/06/20 00:37:41;;;;;;;15.43;10.82;;;;;;;14.53;96.60;100359.28;695774;28;1456;-78
2022/06/20 00:38:03;;;;;;;13.52;10.68;;;;;;;14.56;96.81;100374.97;696483;28;4461;-78
2022/06/20 00:38:24;;;;;;;14.73;10.88;;;;;;;14.55;96.89;100360.13;696820;28;1926;-78
2022/06/20 00:38:55;;;;;;;14.75;10.82;;;;;;;14.48;96.82;100366.41;694354;28;966;-77
2022/06/20 00:39:19;;;;;;;15.60;10.82;;;;;;;14.51;96.91;100349.69;695215;28;950;-78
2022/06/20 00:39:40;;;;;;;13.75;10.55;;;;;;;14.53;96.92;100346.13;697530;28;1130;-79
2022/06/20 00:40:00;;;;;;;12.82;10.18;;;;;;;14.55;96.72;100367.13;691818;28;1216;-77
2022/06/20 00:40:45;;;;;;;14.35;10.23;;;;;;;14.51;96.55;100350.56;692615;28;1127;-78
2022/06/20 00:41:12;;;;;;;14.02;11.25;;;;;;;14.56;96.63;100356.56;692046;28;4303;-78
2022/06/20 00:41:36;;;;;;;15.43;11.13;;;;;;;14.58;96.59;100352.13;692564;28;1400;-78
2022/06/20 00:42:02;;;;;;;15.45;11.13;;;;;;;14.55;96.74;100348.72;694522;28;974;-77
2022/06/20 00:42:23;;;;;;;14.50;10.23;;;;;;;14.53;96.95;100351.38;688919;28;1427;-78
2022/06/20 00:42:44;;;;;;;16.35;10.80;;;;;;;14.51;96.96;100353.22;690116;28;1045;-78
2022/06/20 00:43:06;;;;;;;13.70;11.00;;;;;;;14.54;97.28;100350.50;694132;28;1961;-77
2022/06/20 00:43:35;;;;;;;14.07;10.80;;;;;;;14.54;96.94;100358.38;691311;28;1306;-78
2022/06/20 00:43:56;;;;;;;13.25;10.27;;;;;;;14.53;97.08;100368.94;692605;28;4270;-78
2022/06/20 00:44:24;;;;;;;12.80;10.48;;;;;;;14.51;97.01;100376.88;693766;28;1199;-78
2022/06/20 00:44:48;;;;;;;13.52;10.88;;;;;;;14.47;97.11;100376.09;696511;28;1432;-78
2022/06/20 00:45:11;;;;;;;16.00;11.55;;;;;;;14.50;96.85;100372.50;691779;28;1351;-78
2022/06/20 00:45:39;;;;;;;16.38;10.85;;;;;;;14.48;97.10;100377.81;693591;28;1365;-78
2022/06/20 00:46:03;;;;;;;14.10;10.85;;;;;;;14.48;97.23;100371.66;696670;28;927;-78
2022/06/20 00:46:34;;;;;;;11.75;10.15;;;;;;;14.45;97.25;100377.91;695580;28;1594;-78
2022/06/20 00:47:00;;;;;;;12.88;10.50;;;;;;;14.41;97.27;100372.75;695166;28;4361;-78
2022/06/20 00:47:27;;;;;;;14.77;10.93;;;;;;;14.38;97.68;100375.44;696190;28;1074;-78
2022/06/20 00:47:50;;;;;;;15.70;11.02;;;;;;;14.38;97.86;100384.19;693585;28;891;-78
2022/06/20 00:48:16;;;;;;;12.77;10.30;;;;;;;14.41;96.98;100380.63;694935;28;1398;-78
2022/06/20 00:48:46;;;;;;;13.30;10.68;;;;;;;14.40;96.79;100389.41;696321;28;1612;-78
2022/06/20 00:49:20;;;;;;;13.40;10.45;;;;;;;14.41;96.73;100391.16;697044;28;983;-78
2022/06/20 00:49:56;;;;;;;13.80;10.38;;;;;;;14.41;97.62;100413.06;697798;28;1175;-78
2022/06/20 00:50:20;;;;;;;13.73;10.45;;;;;;;14.41;97.54;100412.19;695771;28;4972;-78
2022/06/20 00:50:41;;;;;;;13.25;10.68;;;;;;;14.37;98.10;100410.53;697915;28;894;-78
2022/06/20 00:51:24;;;;;;;13.10;10.43;;;;;;;14.38;98.20;100418.38;697404;28;1164;-79
2022/06/20 00:52:20;;;;;;;15.88;10.55;;;;;;;14.36;98.34;100435.09;693332;28;1143;-79
2022/06/20 00:52:48;;;;;;;14.00;10.38;;;;;;;14.36;98.05;100438.59;691049;28;1347;-79
2022/06/20 00:53:14;;;;;;;14.15;10.30;;;;;;;14.36;97.67;100440.34;699336;28;4344;-79
2022/06/20 00:53:44;;;;;;;14.55;10.15;;;;;;;14.39;97.85;100441.16;696436;28;1403;-79
2022/06/20 00:54:19;;;;;;;13.18;10.55;;;;;;;14.43;96.97;100441.97;696958;28;1405;-79
2022/06/20 00:54:48;;;;;;;14.00;9.77;;;;;;;14.46;97.38;100436.63;699915;28;1374;-78
2022/06/20 00:55:23;;;;;;;15.43;9.70;;;;;;;14.48;97.32;100440.06;688869;28;1349;-79
2022/06/20 00:55:50;;;;;;;11.70;9.73;;;;;;;14.48;97.95;100438.31;689772;28;823;-79
2022/06/20 00:56:20;;;;;;;13.00;9.93;;;;;;;14.47;97.58;100447.09;692070;28;5156;-79
2022/06/20 00:56:56;;;;;;;14.80;9.70;;;;;;;14.46;97.26;100436.63;697889;28;1076;-78
2022/06/20 00:57:38;;;;;;;14.10;9.90;;;;;;;14.43;97.27;100444.59;694785;28;1282;-78
2022/06/20 00:58:22;;;;;;;13.95;10.40;;;;;;;14.42;96.80;100440.22;693417;28;1223;-79
2022/06/20 00:58:55;;;;;;;15.02;10.63;;;;;;;14.41;97.42;100443.75;694021;28;1459;-79
2022/06/20 00:59:22;;;;;;;14.23;10.45;;;;;;;14.42;97.03;100450.75;694798;28;5034;-79
2022/06/20 00:59:47;;;;;;;13.80;10.15;;;;;;;14.41;97.46;100459.53;697297;28;820;-78
2022/06/20 01:00:15;;;;;;;12.85;9.93;;;;;;;14.41;98.13;100454.25;698680;28;1123;-78
2022/06/20 01:00:38;;;;;;;12.57;9.45;;;;;;;14.41;98.82;100468.28;697049;28;896;-78
2022/06/20 01:00:59;;;;;;;14.77;9.45;;;;;;;14.46;97.40;100457.66;698987;28;972;-78
2022/06/20 01:01:29;;;;;;;13.68;10.32;;;;;;;14.44;97.93;100459.44;697034;28;1215;-78
2022/06/20 01:01:50;;;;;;;12.80;9.90;;;;;;;14.44;98.09;100455.06;696930;28;1413;-78
2022/06/20 01:02:15;;;;;;;12.25;9.50;;;;;;;14.46;97.90;100455.88;693386;28;4251;-79
2022/06/20 01:02:41;;;;;;;13.95;9.82;;;;;;;14.46;98.24;100455.88;694149;28;926;-78
2022/06/20 01:03:13;;;;;;;14.13;9.82;;;;;;;14.46;98.51;100453.25;694475;28;1335;-78
2022/06/20 01:03:39;;;;;;;13.40;8.75;;;;;;;14.48;98.15;100461.09;696825;28;931;-78
2022/06/20 01:04:05;;;;;;;13.18;9.32;;;;;;;14.57;98.60;100458.25;697141;28;1349;-78
2022/06/20 01:04:52;;;;;;;14.50;9.93;;;;;;;14.58;98.85;100472.25;695823;28;1331;-79
2022/06/20 01:05:20;;;;;;;13.05;9.48;;;;;;;14.55;99.65;100454.81;690212;28;4285;-79
2022/06/20 01:05:48;;;;;;;12.48;9.60;;;;;;;14.51;99.71;100458.41;690150;28;1410;-79
2022/06/20 01:06:11;;;;;;;13.35;9.30;;;;;;;14.51;99.20;100461.03;693691;28;1246;-79
2022/06/20 01:06:37;;;;;;;13.50;8.85;;;;;;;14.54;99.33;100467.97;691407;28;1126;-79
2022/06/20 01:07:00;;;;;;;13.18;9.00;;;;;;;14.57;99.52;100466.16;691291;28;1472;-79
2022/06/20 01:07:33;;;;;;;13.23;9.07;;;;;;;14.54;99.35;100465.34;694994;28;1033;-79
2022/06/20 01:07:59;;;;;;;11.13;8.75;;;;;;;14.53;100.00;100466.28;695765;28;1188;-79
2022/06/20 01:08:24;;;;;;;11.38;8.55;;;;;;;14.52;100.00;100468.00;695861;28;4827;-78
2022/06/20 01:08:49;;;;;;;12.45;8.32;;;;;;;14.50;100.00;100471.59;694765;28;1924;-79
2022/06/20 01:09:12;;;;;;;12.00;8.70;;;;;;;14.46;100.00;100474.28;694571;28;1258;-79
2022/06/20 01:09:37;;;;;;;13.68;8.85;;;;;;;14.47;100.00;100475.16;694220;28;1194;-79
2022/06/20 01:09:59;;;;;;;13.02;8.50;;;;;;;14.48;99.89;100477.75;691612;28;1332;-78
2022/06/20 01:10:20;;;;;;;11.25;8.23;;;;;;;14.47;100.00;100480.44;690873;28;1385;-78
2022/06/20 01:11:17;;;;;;;13.23;8.50;;;;;;;14.44;100.00;100491.00;693502;28;927;-78
2022/06/20 01:11:54;;;;;;;10.88;8.80;;;;;;;14.43;99.77;100491.94;682068;28;4914;-79
2022/06/20 01:12:19;;;;;;;13.15;8.43;;;;;;;14.43;99.71;100499.81;687323;28;1613;-78
2022/06/20 01:12:51;;;;;;;13.02;8.70;;;;;;;14.41;99.64;100513.00;688605;28;1690;-78
2022/06/20 01:13:15;;;;;;;11.13;8.43;;;;;;;14.41;99.84;100517.38;685785;28;1652;-78
2022/06/20 01:13:36;;;;;;;11.23;8.20;;;;;;;14.41;99.69;100523.53;682272;28;1514;-78
2022/06/20 01:13:56;;;;;;;11.37;8.00;;;;;;;14.41;99.41;100526.16;682049;28;4343;-78
2022/06/20 01:14:22;;;;;;;11.43;8.27;;;;;;;14.41;100.00;100534.03;681642;28;1284;-78
2022/06/20 01:14:43;;;;;;;11.68;9.02;;;;;;;14.41;100.00;100543.69;684954;28;1015;-78
2022/06/20 01:15:20;;;;;;;12.60;8.90;;;;;;;14.41;100.00;100543.69;685760;28;1035;-79
2022/06/20 01:15:43;;;;;;;11.55;8.20;;;;;;;14.43;100.00;100562.94;693941;28;1605;-79
2022/06/20 01:16:24;;;;;;;11.05;8.07;;;;;;;14.39;100.00;100556.00;692704;28;1077;-78
2022/06/20 01:16:44;;;;;;;12.05;8.73;;;;;;;14.37;100.00;100569.19;691017;28;923;-79
2022/06/20 01:17:13;;;;;;;11.82;8.25;;;;;;;14.38;100.00;100570.06;693316;28;4336;-79
2022/06/20 01:17:38;;;;;;;12.98;8.30;;;;;;;14.37;100.00;100586.72;688550;28;2311;-79
2022/06/20 01:17:59;;;;;;;12.25;8.57;;;;;;;14.38;100.00;100588.47;691295;28;1348;-79
2022/06/20 01:18:26;;;;;;;12.45;8.57;;;;;;;14.39;100.00;100598.09;691763;28;1906;-79
2022/06/20 01:18:48;;;;;;;13.07;8.85;;;;;;;14.38;100.00;100605.09;690841;28;2289;-80
2022/06/20 01:19:10;;;;;;;11.00;8.35;;;;;;;14.37;100.00;100606.00;695564;28;1415;-80
2022/06/20 01:19:42;;;;;;;12.77;8.73;;;;;;;14.37;100.00;100615.66;689458;28;1260;-80
2022/06/20 01:20:17;;;;;;;13.20;8.32;;;;;;;14.34;100.00;100615.72;691427;28;4274;-79
2022/06/20 01:20:37;;;;;;;13.57;8.40;;;;;;;14.34;100.00;100626.25;691651;28;2077;-80
2022/06/20 01:20:59;;;;;;;12.07;8.77;;;;;;;14.30;100.00;100623.69;693075;28;788;-80
2022/06/20 01:21:25;;;;;;;13.10;9.20;;;;;;;14.33;100.00;100629.75;692231;28;1459;-80
2022/06/20 01:21:45;;;;;;;14.45;9.30;;;;;;;14.29;100.00;100627.19;693553;28;1146;-80
2022/06/20 01:22:17;;;;;;;13.32;9.10;;;;;;;14.30;100.00;100635.94;689048;28;1332;-79
2022/06/20 01:22:38;;;;;;;12.93;8.43;;;;;;;14.29;100.00;100640.34;687647;28;1046;-79
2022/06/20 01:23:54;;;;;;;11.80;8.43;;;;;;;14.28;100.00;100658.78;690126;28;4638;-79
2022/06/20 01:24:23;;;;;;;13.38;8.52;;;;;;;14.26;100.00;100671.97;676605;29;1887;-79
2022/06/20 01:24:59;;;;;;;11.95;9.00;;;;;;;14.27;100.00;100681.59;674265;29;1351;-79
2022/06/20 01:25:46;;;;;;;13.82;9.18;;;;;;;14.31;100.00;100698.16;681914;28;1254;-79
2022/06/20 01:26:15;;;;;;;13.48;8.13;;;;;;;14.45;100.00;100692.63;682988;28;4346;-79
2022/06/20 01:27:00;;;;;;;13.07;8.77;;;;;;;14.50;100.00;100696.03;684875;28;1228;-79
2022/06/20 01:27:36;;;;;;;13.25;8.82;;;;;;;14.44;100.00;100701.41;694062;28;1065;-79
2022/06/20 01:27:57;;;;;;;15.32;9.10;;;;;;;14.39;100.00;100708.53;696108;28;1014;-79
2022/06/20 01:28:23;;;;;;;16.40;9.60;;;;;;;14.36;100.00;100711.22;697204;28;1120;-79
2022/06/20 01:28:47;;;;;;;13.20;9.13;;;;;;;14.30;100.00;100718.34;697166;28;1310;-79
2022/06/20 01:29:11;;;;;;;11.95;8.93;;;;;;;14.33;100.00;100716.53;692806;28;4487;-80
2022/06/20 01:29:31;;;;;;;13.38;9.00;;;;;;;14.33;100.00;100721.78;693950;28;1320;-80
2022/06/20 01:29:52;;;;;;;12.93;9.37;;;;;;;14.34;100.00;100715.66;695955;28;3700;-80
2022/06/20 01:30:13;;;;;;;12.60;9.20;;;;;;;14.39;100.00;100734.84;690574;28;1326;-79
2022/06/20 01:30:37;;;;;;;13.88;9.50;;;;;;;14.34;100.00;100732.28;688759;28;1267;-80
2022/06/20 01:30:59;;;;;;;13.57;9.60;;;;;;;14.36;100.00;100733.13;691347;28;895;-79
2022/06/20 01:31:21;;;;;;;13.00;9.48;;;;;;;14.37;100.00;100726.09;690961;28;1372;-80
2022/06/20 01:31:49;;;;;;;15.02;10.20;;;;;;;14.45;100.00;100742.59;692251;28;1024;-80
2022/06/20 01:32:11;;;;;;;14.52;10.70;;;;;;;14.37;100.00;100740.13;696881;28;4248;-80
2022/06/20 01:32:31;;;;;;;15.70;10.73;;;;;;;14.33;100.00;100725.31;696931;28;1433;-79
2022/06/20 01:32:52;;;;;;;14.90;10.48;;;;;;;14.35;100.00;100749.81;695991;28;1045;-79
2022/06/20 01:33:15;;;;;;;14.60;10.43;;;;;;;14.37;100.00;100736.63;699217;28;988;-79
2022/06/20 01:33:36;;;;;;;14.05;10.57;;;;;;;14.36;100.00;100727.88;696077;28;1431;-79
2022/06/20 01:34:00;;;;;;;15.40;11.10;;;;;;;14.30;100.00;100731.50;694682;28;984;-79
2022/06/20 01:34:21;;;;;;;14.10;10.73;;;;;;;14.29;100.00;100735.00;693718;28;1131;-79
2022/06/20 01:34:41;;;;;;;14.82;11.02;;;;;;;14.30;100.00;100725.34;688421;28;1362;-81
2022/06/20 01:35:06;;;;;;;13.82;10.40;;;;;;;14.43;100.00;100731.25;689040;28;4355;-79
2022/06/20 01:37:34;;;;;;;18.33;11.88;;;;;;;14.23;100.00;100736.88;694609;28;1077;-80
2022/06/20 01:37:55;;;;;;;15.10;11.27;;;;;;;14.19;100.00;100732.56;698460;28;1477;-80
2022/06/20 01:38:15;;;;;;;16.03;11.07;;;;;;;14.21;100.00;100730.81;694429;28;4398;-81
2022/06/20 01:38:37;;;;;;;15.48;11.07;;;;;;;14.20;100.00;100731.69;693162;28;1246;-81
2022/06/20 01:39:00;;;;;;;17.27;11.38;;;;;;;14.20;100.00;100731.69;688801;28;1408;-80
2022/06/20 01:39:21;;;;;;;16.23;12.23;;;;;;;14.17;100.00;100735.22;694055;28;1264;-80
2022/06/20 01:39:42;;;;;;;15.95;11.57;;;;;;;14.17;100.00;100737.00;691117;28;1310;-79
2022/06/20 01:40:09;;;;;;;16.70;12.15;;;;;;;14.16;100.00;100730.88;691598;28;1213;-80
2022/06/20 01:40:30;;;;;;;16.83;11.95;;;;;;;14.18;100.00;100746.59;692923;28;983;-80
2022/06/20 01:42:21;;;;;;;16.55;12.13;;;;;;;14.07;100.00;100726.66;693801;28;1239;-81
2022/06/20 01:42:43;;;;;;;15.23;11.38;;;;;;;14.03;100.00;100727.59;695180;28;911;-81
2022/06/20 01:43:06;;;;;;;17.23;12.38;;;;;;;13.96;100.00;100721.59;695147;28;1191;-81
2022/06/20 01:43:34;;;;;;;17.77;12.82;;;;;;;13.87;100.00;100740.13;695174;28;918;-82
2022/06/20 01:43:58;;;;;;;17.45;12.73;;;;;;;13.90;100.00;100720.81;693470;28;832;-82
2022/06/20 01:44:22;;;;;;;19.63;13.85;;;;;;;14.02;100.00;100746.03;694311;28;4720;-82
2022/06/20 01:45:01;;;;;;;18.08;13.00;;;;;;;14.06;100.00;100721.44;694859;28;1297;-82
2022/06/20 01:46:09;;;;;;;17.17;12.90;;;;;;;13.98;100.00;100713.66;692283;28;1685;-82
2022/06/20 01:46:31;;;;;;;16.40;12.48;;;;;;;14.00;100.00;100745.19;692683;28;1293;-82
2022/06/20 01:46:52;;;;;;;17.25;13.07;;;;;;;13.91;100.00;100733.94;685983;28;1209;-81
2022/06/20 01:47:12;;;;;;;17.65;12.90;;;;;;;13.93;100.00;100726.91;689225;28;4348;-82
2022/06/20 01:47:33;;;;;;;18.67;12.52;;;;;;;13.89;100.00;100724.38;690882;28;1326;-82
2022/06/20 01:47:54;;;;;;;18.25;12.55;;;;;;;13.83;100.00;100709.56;696075;28;1269;-82
2022/06/20 01:48:20;;;;;;;17.42;12.73;;;;;;;13.76;100.00;100700.94;696282;28;1387;-82
2022/06/20 01:48:50;;;;;;;18.25;13.55;;;;;;;13.74;100.00;100705.31;696071;28;1393;-82
2022/06/20 01:49:19;;;;;;;19.63;13.85;;;;;;;13.75;100.00;100719.34;693629;28;880;-82
2022/06/20 01:49:43;;;;;;;18.88;13.98;;;;;;;13.74;100.00;100709.72;689876;28;1220;-82
2022/06/20 01:50:06;;;;;;;18.90;13.93;;;;;;;13.75;100.00;100714.09;689517;28;4289;-81
2022/06/20 01:50:27;;;;;;;18.52;13.35;;;;;;;13.72;100.00;100708.88;694385;28;1357;-83
2022/06/20 01:50:48;;;;;;;18.40;13.20;;;;;;;13.73;100.00;100708.00;696584;28;1297;-81
2022/06/20 01:51:19;;;;;;;18.83;13.82;;;;;;;13.74;100.00;100705.31;696633;28;1407;-82
2022/06/20 01:51:45;;;;;;;17.10;13.50;;;;;;;13.71;100.00;100715.03;693348;28;1316;-82
2022/06/20 01:52:37;;;;;;;18.85;13.50;;;;;;;13.72;100.00;100696.63;688309;28;994;-83
2022/06/20 01:53:01;;;;;;;19.10;14.52;;;;;;;13.72;100.00;100685.22;682253;28;4274;-82
2022/06/20 01:53:29;;;;;;;20.38;14.13;;;;;;;13.77;100.00;100686.03;694531;28;1235;-83
2022/06/20 01:53:53;;;;;;;18.25;13.30;;;;;;;13.74;100.00;100705.31;698460;28;1277;-82
2022/06/20 01:54:16;;;;;;;18.27;13.77;;;;;;;13.72;100.00;100683.50;700151;28;1352;-82
2022/06/20 01:54:43;;;;;;;17.77;13.43;;;;;;;13.63;100.00;100671.34;700148;28;1336;-82
2022/06/20 01:55:08;;;;;;;19.27;13.27;;;;;;;13.62;100.00;100671.38;698098;28;1556;-81
2022/06/20 01:55:31;;;;;;;20.08;13.52;;;;;;;13.61;100.00;100683.66;696686;28;819;-82
2022/06/20 01:55:55;;;;;;;18.33;13.18;;;;;;;13.68;100.00;100683.53;696495;28;1152;-82
2022/06/20 01:56:21;;;;;;;18.65;13.63;;;;;;;13.68;100.00;100652.03;694661;28;5024;-82
2022/06/20 01:56:46;;;;;;;19.25;13.70;;;;;;;13.65;100.00;100657.34;694932;28;1278;-83
2022/06/20 01:57:09;;;;;;;19.20;13.73;;;;;;;13.70;100.00;100666.00;690123;28;1121;-83
2022/06/20 01:57:33;;;;;;;18.67;13.15;;;;;;;13.77;100.00;100657.97;697976;28;1357;-83
2022/06/20 01:58:09;;;;;;;18.08;13.07;;;;;;;13.70;100.00;100627.47;699436;28;1676;-83
2022/06/20 01:58:38;;;;;;;16.80;13.38;;;;;;;13.76;100.00;100637.00;695215;28;1969;-82
2022/06/20 01:59:08;;;;;;;19.45;13.68;;;;;;;13.75;100.00;100645.78;690120;28;4278;-82
2022/06/20 01:59:37;;;;;;;19.38;13.45;;;;;;;13.67;100.00;100609.13;695675;28;1380;-83
2022/06/20 02:00:04;;;;;;;20.55;14.10;;;;;;;13.65;100.00;100612.69;689971;28;907;-83
2022/06/20 02:00:25;;;;;;;20.23;13.57;;;;;;;13.56;100.00;100606.69;689538;28;839;-84
2022/06/20 02:00:49;;;;;;;19.55;13.45;;;;;;;13.60;100.00;100604.91;692782;28;1380;-83
2022/06/20 02:01:14;;;;;;;19.02;13.20;;;;;;;13.65;100.00;100602.19;692612;28;1017;-84